createdAt,value
2023-05-17T00:00:49.949Z,998.00
2023-05-17T00:01:49.953Z,997.92
2023-05-17T00:02:49.974Z,998.00
2023-05-17T00:03:49.921Z,997.93
2023-05-17T00:04:49.935Z,998.03
2023-05-17T00:05:49.908Z,997.89
2023-05-17T00:06:49.891Z,997.90
2023-05-17T00:07:50.074Z,997.93
2023-05-17T00:08:49.865Z,997.93
2023-05-17T00:09:49.868Z,998.03
2023-05-17T00:10:49.861Z,997.98
2023-05-17T00:11:49.849Z,998.02
2023-05-17T00:12:49.826Z,997.96
2023-05-17T00:13:49.821Z,998.00
2023-05-17T00:14:49.804Z,998.13
2023-05-17T00:15:49.795Z,998.02
2023-05-17T00:16:49.797Z,998.09
2023-05-17T00:17:49.841Z,998.04
2023-05-17T00:18:49.966Z,998.06
2023-05-17T00:19:49.971Z,998.03
2023-05-17T00:20:49.748Z,997.98
2023-05-17T00:21:50.869Z,998.06
2023-05-17T00:22:50.848Z,998.10
2023-05-17T00:23:50.907Z,997.96
2023-05-17T00:24:50.830Z,998.10
2023-05-17T00:25:50.816Z,998.00
2023-05-17T00:26:50.814Z,998.00
2023-05-17T00:27:50.885Z,998.01
2023-05-17T00:28:50.789Z,998.05
2023-05-17T00:29:50.778Z,998.11
2023-05-17T00:30:50.772Z,998.03
2023-05-17T00:31:50.750Z,998.04
2023-05-17T00:32:50.766Z,998.13
2023-05-17T00:33:50.726Z,998.10
2023-05-17T00:34:50.750Z,998.04
2023-05-17T00:35:50.721Z,998.17
2023-05-17T00:36:50.703Z,998.10
2023-05-17T00:37:50.704Z,998.14
2023-05-17T00:38:50.685Z,998.12
2023-05-17T00:39:50.813Z,998.13
2023-05-17T00:40:50.678Z,998.14
2023-05-17T00:41:50.658Z,998.04
2023-05-17T00:42:50.646Z,998.10
2023-05-17T00:43:50.645Z,998.01
2023-05-17T00:44:50.652Z,998.05
2023-05-17T00:45:50.628Z,998.02
2023-05-17T00:46:50.612Z,997.98
2023-05-17T00:47:50.656Z,998.02
2023-05-17T00:48:50.660Z,998.12
2023-05-17T00:49:50.574Z,998.06
2023-05-17T00:50:50.564Z,998.02
2023-05-17T00:51:50.559Z,998.04
2023-05-17T00:52:50.542Z,998.07
2023-05-17T00:53:50.552Z,998.00
2023-05-17T00:54:50.532Z,998.10
2023-05-17T00:55:50.615Z,998.06
2023-05-17T00:56:50.507Z,997.95
2023-05-17T00:57:50.506Z,998.08
2023-05-17T00:58:50.572Z,997.95
2023-05-17T00:59:50.484Z,998.02
2023-05-17T01:00:50.483Z,998.00
2023-05-17T01:01:50.459Z,997.99
2023-05-17T01:02:50.508Z,997.94
2023-05-17T01:03:50.608Z,997.97
2023-05-17T01:04:50.482Z,997.99
2023-05-17T01:05:50.420Z,998.01
2023-05-17T01:06:50.420Z,998.00
2023-05-17T01:07:50.405Z,998.04
2023-05-17T01:08:50.399Z,997.99
2023-05-17T01:09:50.389Z,997.99
2023-05-17T01:10:50.378Z,998.04
2023-05-17T01:11:50.510Z,998.00
2023-05-17T01:12:50.366Z,998.00
2023-05-17T01:13:50.367Z,998.16
2023-05-17T01:14:50.329Z,998.13
2023-05-17T01:15:50.318Z,998.08
2023-05-17T01:16:50.332Z,998.11
2023-05-17T01:17:50.440Z,998.10
2023-05-17T01:18:50.412Z,998.11
2023-05-17T01:19:50.435Z,998.08
2023-05-17T01:20:50.265Z,998.06
2023-05-17T01:21:50.273Z,998.01
2023-05-17T01:22:50.264Z,998.03
2023-05-17T01:23:50.251Z,998.13
2023-05-17T01:24:50.224Z,998.05
2023-05-17T01:25:51.251Z,998.02
2023-05-17T01:26:50.224Z,998.12
2023-05-17T01:27:50.318Z,998.12
2023-05-17T01:28:50.197Z,998.08
2023-05-17T01:29:50.183Z,998.05
2023-05-17T01:30:50.201Z,998.07
2023-05-17T01:31:50.168Z,998.11
2023-05-17T01:32:50.187Z,998.09
2023-05-17T01:33:50.225Z,998.15
2023-05-17T01:34:50.133Z,998.14
2023-05-17T01:35:50.130Z,998.20
2023-05-17T01:36:50.113Z,998.13
2023-05-17T01:37:50.098Z,998.19
2023-05-17T01:38:50.090Z,998.19
2023-05-17T01:39:50.091Z,998.21
2023-05-17T01:40:50.079Z,998.24
2023-05-17T01:41:50.069Z,998.30
2023-05-17T01:42:50.056Z,998.24
2023-05-17T01:43:50.124Z,998.25
2023-05-17T01:44:50.036Z,998.27
2023-05-17T01:45:50.011Z,998.27
2023-05-17T01:46:49.993Z,998.27
2023-05-17T01:47:50.019Z,998.22
2023-05-17T01:48:50.005Z,998.29
2023-05-17T01:49:49.990Z,998.24
2023-05-17T01:50:49.953Z,998.29
2023-05-17T01:51:49.960Z,998.34
2023-05-17T01:52:49.952Z,998.33
2023-05-17T01:53:49.945Z,998.25
2023-05-17T01:54:49.934Z,998.38
2023-05-17T01:55:49.939Z,998.32
2023-05-17T01:56:49.919Z,998.31
2023-05-17T01:57:49.890Z,998.32
2023-05-17T01:58:49.887Z,998.39
2023-05-17T01:59:50.027Z,998.37
2023-05-17T02:00:49.866Z,998.37
2023-05-17T02:01:49.852Z,998.33
2023-05-17T02:02:49.854Z,998.35
2023-05-17T02:03:49.905Z,998.36
2023-05-17T02:04:49.855Z,998.34
2023-05-17T02:05:49.810Z,998.39
2023-05-17T02:06:49.811Z,998.49
2023-05-17T02:07:49.797Z,998.45
2023-05-17T02:08:49.793Z,998.43
2023-05-17T02:09:49.771Z,998.50
2023-05-17T02:10:49.762Z,998.49
2023-05-17T02:11:49.752Z,998.44
2023-05-17T02:12:49.747Z,998.46
2023-05-17T02:13:49.728Z,998.38
2023-05-17T02:14:49.718Z,998.52
2023-05-17T02:15:49.801Z,998.43
2023-05-17T02:16:49.701Z,998.41
2023-05-17T02:17:49.847Z,998.55
2023-05-17T02:18:49.845Z,998.37
2023-05-17T02:19:49.674Z,998.43
2023-05-17T02:20:49.667Z,998.34
2023-05-17T02:21:49.658Z,998.39
2023-05-17T02:22:49.674Z,998.40
2023-05-17T02:23:49.633Z,998.42
2023-05-17T02:24:49.645Z,998.42
2023-05-17T02:25:49.611Z,998.38
2023-05-17T02:26:49.625Z,998.34
2023-05-17T02:27:49.614Z,998.43
2023-05-17T02:28:49.587Z,998.37
2023-05-17T02:29:49.578Z,998.44
2023-05-17T02:30:49.578Z,998.53
2023-05-17T02:31:49.628Z,998.45
2023-05-17T02:32:49.650Z,998.38
2023-05-17T02:33:49.600Z,998.59
2023-05-17T02:34:49.532Z,998.56
2023-05-17T02:35:49.533Z,998.55
2023-05-17T02:36:49.518Z,998.47
2023-05-17T02:37:49.507Z,998.43
2023-05-17T02:38:49.494Z,998.49
2023-05-17T02:39:49.489Z,998.50
2023-05-17T02:40:49.506Z,998.52
2023-05-17T02:41:49.482Z,998.49
2023-05-17T02:42:49.455Z,998.52
2023-05-17T02:43:49.443Z,998.57
2023-05-17T02:44:49.439Z,998.61
2023-05-17T02:45:49.436Z,998.53
2023-05-17T02:46:49.439Z,998.53
2023-05-17T02:47:49.526Z,998.56
2023-05-17T02:48:49.391Z,998.56
2023-05-17T02:49:49.394Z,998.65
2023-05-17T02:50:49.385Z,998.52
2023-05-17T02:51:49.369Z,998.59
2023-05-17T02:52:49.355Z,998.61
2023-05-17T02:53:49.345Z,998.56
2023-05-17T02:54:49.342Z,998.56
2023-05-17T02:55:49.332Z,998.62
2023-05-17T02:56:49.312Z,998.62
2023-05-17T02:57:49.306Z,998.59
2023-05-17T02:58:49.302Z,998.52
2023-05-17T02:59:49.298Z,998.59
2023-05-17T03:00:49.284Z,998.61
2023-05-17T03:01:49.267Z,998.59
2023-05-17T03:02:49.346Z,998.64
2023-05-17T03:03:49.630Z,998.63
2023-05-17T03:04:49.269Z,998.70
2023-05-17T03:05:49.221Z,998.65
2023-05-17T03:06:49.229Z,998.61
2023-05-17T03:07:49.210Z,998.57
2023-05-17T03:08:49.215Z,998.69
2023-05-17T03:09:49.197Z,998.61
2023-05-17T03:10:49.211Z,998.66
2023-05-17T03:11:50.177Z,998.57
2023-05-17T03:12:49.160Z,998.56
2023-05-17T03:13:49.168Z,998.55
2023-05-17T03:14:49.152Z,998.54
2023-05-17T03:15:49.123Z,998.53
2023-05-17T03:16:49.129Z,998.52
2023-05-17T03:17:49.152Z,998.50
2023-05-17T03:18:49.253Z,998.57
2023-05-17T03:19:49.312Z,998.55
2023-05-17T03:20:49.075Z,998.54
2023-05-17T03:21:49.075Z,998.61
2023-05-17T03:22:49.070Z,998.61
2023-05-17T03:23:49.063Z,998.51
2023-05-17T03:24:49.042Z,998.70
2023-05-17T03:25:49.026Z,998.59
2023-05-17T03:26:49.030Z,998.55
2023-05-17T03:27:49.089Z,998.61
2023-05-17T03:28:49.011Z,998.67
2023-05-17T03:29:49.006Z,998.67
2023-05-17T03:30:48.987Z,998.65
2023-05-17T03:31:48.967Z,998.70
2023-05-17T03:32:49.043Z,998.68
2023-05-17T03:33:49.046Z,998.65
2023-05-17T03:34:48.947Z,998.66
2023-05-17T03:35:49.051Z,998.81
2023-05-17T03:36:48.924Z,998.71
2023-05-17T03:37:48.931Z,998.73
2023-05-17T03:38:48.893Z,998.77
2023-05-17T03:39:48.894Z,998.75
2023-05-17T03:40:48.879Z,998.70
2023-05-17T03:41:48.885Z,998.73
2023-05-17T03:42:48.870Z,998.90
2023-05-17T03:43:49.861Z,998.81
2023-05-17T03:44:48.863Z,998.75
2023-05-17T03:45:48.838Z,998.86
2023-05-17T03:46:48.845Z,998.83
2023-05-17T03:47:48.863Z,998.86
2023-05-17T03:48:48.881Z,998.74
2023-05-17T03:49:48.797Z,998.85
2023-05-17T03:50:48.804Z,998.82
2023-05-17T03:51:48.800Z,998.82
2023-05-17T03:52:48.784Z,998.84
2023-05-17T03:53:48.772Z,998.82
2023-05-17T03:54:48.751Z,998.79
2023-05-17T03:55:48.806Z,998.84
2023-05-17T03:56:48.788Z,998.80
2023-05-17T03:57:48.755Z,998.83
2023-05-17T03:58:48.806Z,998.75
2023-05-17T03:59:48.704Z,998.81
2023-05-17T04:00:48.732Z,998.85
2023-05-17T04:01:48.675Z,998.82
2023-05-17T04:02:49.691Z,998.74
2023-05-17T04:03:48.723Z,998.70
2023-05-17T04:04:48.694Z,998.71
2023-05-17T04:05:48.667Z,998.79
2023-05-17T04:06:48.642Z,998.67
2023-05-17T04:07:48.715Z,998.79
2023-05-17T04:08:48.625Z,998.83
2023-05-17T04:09:48.608Z,998.74
2023-05-17T04:10:48.609Z,998.75
2023-05-17T04:11:48.600Z,998.76
2023-05-17T04:12:48.578Z,998.81
2023-05-17T04:13:48.576Z,998.77
2023-05-17T04:14:48.562Z,998.79
2023-05-17T04:15:48.581Z,998.79
2023-05-17T04:16:48.552Z,998.80
2023-05-17T04:17:48.633Z,998.82
2023-05-17T04:18:48.609Z,998.77
2023-05-17T04:19:48.536Z,998.85
2023-05-17T04:20:48.511Z,998.83
2023-05-17T04:21:49.497Z,998.86
2023-05-17T04:22:48.480Z,998.84
2023-05-17T04:23:48.569Z,998.90
2023-05-17T04:24:48.494Z,998.89
2023-05-17T04:25:51.220Z,998.97
2023-05-17T04:26:48.480Z,998.94
2023-05-17T04:27:48.433Z,998.94
2023-05-17T04:28:48.432Z,999.00
2023-05-17T04:29:48.427Z,998.93
2023-05-17T04:30:48.403Z,998.91
2023-05-17T04:31:48.396Z,998.87
2023-05-17T04:32:48.462Z,998.97
2023-05-17T04:33:48.378Z,998.97
2023-05-17T04:34:48.374Z,998.96
2023-05-17T04:35:48.351Z,998.98
2023-05-17T04:36:48.340Z,998.97
2023-05-17T04:37:48.335Z,998.88
2023-05-17T04:38:48.336Z,998.94
2023-05-17T04:39:48.391Z,998.92
2023-05-17T04:40:48.310Z,998.86
2023-05-17T04:41:48.297Z,998.95
2023-05-17T04:42:48.285Z,998.91
2023-05-17T04:43:48.298Z,999.01
2023-05-17T04:44:48.287Z,999.00
2023-05-17T04:45:48.265Z,998.99
2023-05-17T04:46:48.327Z,999.00
2023-05-17T04:47:48.272Z,999.07
2023-05-17T04:48:48.368Z,999.05
2023-05-17T04:49:48.221Z,999.06
2023-05-17T04:50:48.211Z,998.98
2023-05-17T04:51:48.215Z,999.04
2023-05-17T04:52:48.198Z,999.07
2023-05-17T04:53:48.193Z,999.05
2023-05-17T04:54:48.170Z,999.12
2023-05-17T04:55:48.172Z,999.12
2023-05-17T04:56:48.147Z,999.07
2023-05-17T04:57:48.169Z,999.12
2023-05-17T04:58:48.134Z,999.09
2023-05-17T04:59:48.120Z,999.16
2023-05-17T05:00:48.118Z,999.09
2023-05-17T05:01:48.098Z,999.10
2023-05-17T05:02:48.166Z,999.12
2023-05-17T05:03:48.246Z,999.03
2023-05-17T05:04:48.108Z,999.12
2023-05-17T05:05:48.064Z,999.21
2023-05-17T05:06:48.077Z,999.14
2023-05-17T05:07:48.052Z,999.09
2023-05-17T05:08:48.028Z,999.12
2023-05-17T05:09:48.033Z,999.20
2023-05-17T05:10:48.016Z,999.14
2023-05-17T05:11:48.169Z,999.17
2023-05-17T05:12:48.043Z,999.14
2023-05-17T05:13:48.040Z,999.28
2023-05-17T05:14:47.988Z,999.13
2023-05-17T05:15:48.010Z,999.16
2023-05-17T05:16:48.012Z,999.29
2023-05-17T05:17:48.115Z,999.21
2023-05-17T05:18:48.120Z,999.24
2023-05-17T05:19:47.964Z,999.26
2023-05-17T05:20:47.963Z,999.30
2023-05-17T05:21:47.967Z,999.35
2023-05-17T05:22:47.917Z,999.26
2023-05-17T05:23:47.908Z,999.33
2023-05-17T05:24:47.893Z,999.34
2023-05-17T05:25:47.907Z,999.40
2023-05-17T05:26:47.860Z,999.46
2023-05-17T05:27:47.931Z,999.34
2023-05-17T05:28:47.860Z,999.38
2023-05-17T05:29:47.846Z,999.36
2023-05-17T05:30:47.855Z,999.38
2023-05-17T05:31:47.827Z,999.35
2023-05-17T05:32:47.871Z,999.49
2023-05-17T05:33:47.921Z,999.40
2023-05-17T05:34:47.809Z,999.38
2023-05-17T05:35:47.790Z,999.49
2023-05-17T05:36:47.789Z,999.47
2023-05-17T05:37:47.759Z,999.45
2023-05-17T05:38:47.741Z,999.48
2023-05-17T05:39:47.751Z,999.46
2023-05-17T05:40:47.726Z,999.52
2023-05-17T05:41:47.713Z,999.55
2023-05-17T05:42:47.706Z,999.54
2023-05-17T05:43:47.841Z,999.56
2023-05-17T05:44:47.698Z,999.56
2023-05-17T05:45:47.681Z,999.54
2023-05-17T05:46:47.650Z,999.62
2023-05-17T05:47:47.703Z,999.53
2023-05-17T05:48:47.702Z,999.60
2023-05-17T05:49:47.635Z,999.58
2023-05-17T05:50:47.619Z,999.63
2023-05-17T05:51:47.611Z,999.61
2023-05-17T05:52:47.586Z,999.63
2023-05-17T05:53:47.609Z,999.67
2023-05-17T05:54:47.571Z,999.70
2023-05-17T05:55:47.567Z,999.62
2023-05-17T05:56:47.569Z,999.62
2023-05-17T05:57:47.547Z,999.64
2023-05-17T05:58:47.553Z,999.77
2023-05-17T05:59:47.594Z,999.70
2023-05-17T06:00:47.518Z,999.71
2023-05-17T06:01:47.497Z,999.73
2023-05-17T06:02:47.534Z,999.72
2023-05-17T06:03:47.497Z,999.79
2023-05-17T06:04:47.473Z,999.72
2023-05-17T06:05:47.524Z,999.76
2023-05-17T06:06:47.579Z,999.74
2023-05-17T06:07:47.447Z,999.78
2023-05-17T06:08:47.438Z,999.79
2023-05-17T06:09:47.412Z,999.74
2023-05-17T06:10:47.412Z,999.71
2023-05-17T06:11:47.397Z,999.72
2023-05-17T06:12:47.395Z,999.75
2023-05-17T06:13:47.385Z,999.84
2023-05-17T06:14:47.374Z,999.83
2023-05-17T06:15:47.433Z,999.78
2023-05-17T06:16:47.362Z,999.85
2023-05-17T06:17:47.422Z,999.90
2023-05-17T06:18:48.755Z,999.87
2023-05-17T06:19:47.388Z,999.86
2023-05-17T06:20:47.292Z,999.79
2023-05-17T06:21:47.302Z,999.85
2023-05-17T06:22:47.295Z,999.86
2023-05-17T06:23:47.273Z,999.85
2023-05-17T06:24:47.262Z,999.89
2023-05-17T06:25:47.254Z,999.85
2023-05-17T06:26:47.244Z,999.84
2023-05-17T06:27:47.231Z,999.87
2023-05-17T06:28:47.227Z,999.92
2023-05-17T06:29:47.204Z,1000.04
2023-05-17T06:30:47.224Z,999.98
2023-05-17T06:31:47.282Z,999.95
2023-05-17T06:32:47.248Z,1000.02
2023-05-17T06:33:47.215Z,1000.00
2023-05-17T06:34:47.162Z,999.94
2023-05-17T06:35:56.216Z,999.98
2023-05-17T06:36:49.147Z,999.97
2023-05-17T06:37:47.123Z,999.96
2023-05-17T06:38:47.110Z,1000.00
2023-05-17T06:39:55.583Z,999.95
2023-05-17T06:40:49.090Z,1000.05
2023-05-17T06:41:47.095Z,999.95
2023-05-17T06:42:47.081Z,999.98
2023-05-17T06:43:47.062Z,999.97
2023-05-17T06:44:47.066Z,1000.09
2023-05-17T06:45:47.061Z,999.96
2023-05-17T06:46:47.052Z,1000.08
2023-05-17T06:47:47.179Z,1000.03
2023-05-17T06:48:50.780Z,1000.10
2023-05-17T06:49:48.167Z,1000.07
2023-05-17T06:50:47.025Z,1000.04
2023-05-17T06:51:46.991Z,999.98
2023-05-17T06:52:46.980Z,999.99
2023-05-17T06:53:46.978Z,1000.05
2023-05-17T06:54:46.958Z,1000.01
2023-05-17T06:55:46.998Z,1000.02
2023-05-17T06:56:46.971Z,1000.09
2023-05-17T06:57:46.925Z,1000.08
2023-05-17T06:58:46.907Z,1000.03
2023-05-17T06:59:46.901Z,1000.15
2023-05-17T07:00:46.922Z,1000.09
2023-05-17T07:01:46.877Z,1000.18
2023-05-17T07:02:47.734Z,1000.17
2023-05-17T07:03:47.097Z,1000.12
2023-05-17T07:04:46.925Z,1000.12
2023-05-17T07:05:46.846Z,1000.06
2023-05-17T07:06:46.837Z,1000.17
2023-05-17T07:07:46.834Z,1000.14
2023-05-17T07:08:46.809Z,1000.14
2023-05-17T07:09:46.818Z,1000.18
2023-05-17T07:10:46.792Z,1000.15
2023-05-17T07:11:46.785Z,1000.16
2023-05-17T07:12:46.790Z,1000.21
2023-05-17T07:13:46.951Z,1000.20
2023-05-17T07:14:46.897Z,1000.18
2023-05-17T07:15:46.743Z,1000.16
2023-05-17T07:16:46.733Z,1000.18
2023-05-17T07:17:46.809Z,1000.17
2023-05-17T07:18:46.819Z,1000.19
2023-05-17T07:19:46.909Z,1000.17
2023-05-17T07:20:46.695Z,1000.16
2023-05-17T07:21:46.714Z,1000.21
2023-05-17T07:22:46.693Z,1000.22
2023-05-17T07:23:46.681Z,1000.26
2023-05-17T07:24:46.729Z,1000.30
2023-05-17T07:25:46.696Z,1000.31
2023-05-17T07:26:46.636Z,1000.26
2023-05-17T07:27:46.674Z,1000.28
2023-05-17T07:28:46.629Z,1000.26
2023-05-17T07:29:46.617Z,1000.26
2023-05-17T07:30:46.662Z,1000.27
2023-05-17T07:31:46.617Z,1000.25
2023-05-17T07:40:33.611Z,1000.36
2023-05-17T07:40:58.937Z,1000.37
2023-05-17T07:43:46.435Z,1000.43
2023-05-17T07:44:24.846Z,1000.37
2023-05-17T07:45:24.934Z,1000.45
2023-05-17T07:46:24.885Z,1000.43
2023-05-17T07:47:25.492Z,1000.42
2023-05-17T07:48:24.964Z,1000.38
2023-05-17T07:54:19.318Z,1000.50
2023-05-17T07:54:58.454Z,1000.40
2023-05-17T07:55:58.667Z,1000.32
2023-05-17T07:58:45.580Z,1000.39
2023-05-17T07:59:25.043Z,1000.38
2023-05-17T08:08:39.822Z,1000.46
2023-05-17T08:09:39.930Z,1000.44
2023-05-17T08:10:39.922Z,1000.45
2023-05-17T08:11:39.922Z,1000.55
2023-05-17T08:12:39.864Z,1000.53
2023-05-17T08:18:00.868Z,1000.58
2023-05-17T08:18:57.962Z,1000.52
2023-05-17T08:19:57.846Z,1000.58
2023-05-17T08:20:57.796Z,1000.54
2023-05-17T08:22:02.022Z,1000.51
2023-05-17T08:22:57.659Z,1000.50
2023-05-17T08:23:58.288Z,1000.50
2023-05-17T08:24:57.649Z,1000.53
2023-05-17T08:25:57.647Z,1000.57
2023-05-17T08:26:57.848Z,1000.51
2023-05-17T08:27:57.605Z,1000.51
2023-05-17T08:28:57.597Z,1000.54
2023-05-17T08:29:57.609Z,1000.49
2023-05-17T08:30:57.603Z,1000.41
2023-05-17T08:31:57.563Z,1000.35
2023-05-17T08:32:58.889Z,1000.49
2023-05-17T08:33:58.738Z,1000.44
2023-05-17T08:34:58.735Z,1000.41
2023-05-17T08:35:58.686Z,1000.47
2023-05-17T08:36:58.682Z,1000.40
2023-05-17T08:37:58.696Z,1000.43
2023-05-17T08:38:58.636Z,1000.50
2023-05-17T08:39:58.738Z,1000.43
2023-05-17T08:40:58.673Z,1000.50
2023-05-17T08:41:58.604Z,1000.50
2023-05-17T08:42:58.591Z,1000.45
2023-05-17T08:43:58.668Z,1000.46
2023-05-17T08:44:58.571Z,1000.50
2023-05-17T08:45:58.631Z,1000.46
2023-05-17T08:46:58.566Z,1000.45
2023-05-17T08:47:58.674Z,1000.47
2023-05-17T08:48:58.584Z,1000.47
2023-05-17T08:49:58.539Z,1000.48
2023-05-17T08:50:58.522Z,1000.48
2023-05-17T08:51:58.559Z,1000.38
2023-05-17T08:52:58.588Z,1000.45
2023-05-17T08:53:59.496Z,1000.36
2023-05-17T08:54:58.474Z,1000.43
2023-05-17T08:55:58.452Z,1000.42
2023-05-17T08:56:58.452Z,1000.42
2023-05-17T08:57:58.480Z,1000.46
2023-05-17T08:58:58.461Z,1000.48
2023-05-17T08:59:58.431Z,1000.50
2023-05-17T09:00:58.421Z,1000.45
2023-05-17T09:01:58.409Z,1000.49
2023-05-17T09:02:58.499Z,1000.41
2023-05-17T09:03:58.389Z,1000.51
2023-05-17T09:04:58.557Z,1000.51
2023-05-17T09:05:58.507Z,1000.52
2023-05-17T09:06:58.347Z,1000.57
2023-05-17T09:07:58.323Z,1000.54
2023-05-17T09:08:58.486Z,1000.45
2023-05-17T09:09:58.292Z,1000.44
2023-05-17T09:10:58.329Z,1000.45
2023-05-17T09:11:58.293Z,1000.46
2023-05-17T09:12:58.280Z,1000.46
2023-05-17T09:13:58.265Z,1000.39
2023-05-17T09:14:58.260Z,1000.43
2023-05-17T09:15:58.255Z,1000.44
2023-05-17T09:16:58.302Z,1000.42
2023-05-17T09:18:01.815Z,1000.61
2023-05-17T09:18:58.320Z,1000.45
2023-05-17T09:19:58.364Z,1000.51
2023-05-17T09:20:58.200Z,1000.51
2023-05-17T09:21:58.209Z,1000.53
2023-05-17T09:22:58.174Z,1000.57
2023-05-17T09:24:06.476Z,1000.49
2023-05-17T09:25:00.198Z,1000.48
2023-05-17T09:25:58.158Z,1000.50
2023-05-17T09:26:58.174Z,1000.46
2023-05-17T09:27:58.117Z,1000.47
2023-05-17T09:28:59.151Z,1000.42
2023-05-17T09:29:58.103Z,1000.47
2023-05-17T09:30:58.109Z,1000.47
2023-05-17T09:31:58.102Z,1000.60
2023-05-17T09:32:58.086Z,1000.52
2023-05-17T09:33:58.124Z,1000.57
2023-05-17T09:34:58.072Z,1000.56
2023-05-17T09:35:58.076Z,1000.52
2023-05-17T09:36:58.035Z,1000.46
2023-05-17T09:37:58.031Z,1000.42
2023-05-17T09:38:58.039Z,1000.46
2023-05-17T09:39:57.992Z,1000.53
2023-05-17T09:40:58.037Z,1000.44
2023-05-17T09:41:57.989Z,1000.51
2023-05-17T09:42:57.977Z,1000.53
2023-05-17T09:43:57.985Z,1000.48
2023-05-17T09:44:57.960Z,1000.53
2023-05-17T09:45:57.963Z,1000.41
2023-05-17T09:46:57.924Z,1000.41
2023-05-17T09:47:57.997Z,1000.46
2023-05-17T09:48:57.970Z,1000.40
2023-05-17T09:49:57.920Z,1000.46
2023-05-17T09:50:57.913Z,1000.48
2023-05-17T09:51:57.872Z,1000.51
2023-05-17T09:52:57.893Z,1000.47
2023-05-17T09:53:57.853Z,1000.51
2023-05-17T09:54:57.879Z,1000.54
2023-05-17T09:55:57.858Z,1000.52
2023-05-17T09:56:57.827Z,1000.64
2023-05-17T09:57:57.833Z,1000.56
2023-05-17T09:58:57.877Z,1000.54
2023-05-17T09:59:57.853Z,1000.54
2023-05-17T10:00:57.816Z,1000.54
2023-05-17T10:01:57.797Z,1000.50
2023-05-17T10:02:57.850Z,1000.54
2023-05-17T10:03:57.805Z,1000.68
2023-05-17T10:04:57.823Z,1000.65
2023-05-17T10:05:57.739Z,1000.63
2023-05-17T10:06:57.724Z,1000.55
2023-05-17T10:07:57.717Z,1000.62
2023-05-17T10:08:57.734Z,1000.60
2023-05-17T10:09:57.727Z,1000.59
2023-05-17T10:10:57.701Z,1000.62
2023-05-17T10:11:57.699Z,1000.74
2023-05-17T10:12:57.709Z,1000.67
2023-05-17T10:13:57.697Z,1000.69
2023-05-17T10:14:57.823Z,1000.63
2023-05-17T10:15:57.664Z,1000.65
2023-05-17T10:16:57.658Z,1000.69
2023-05-17T10:17:57.752Z,1000.63
2023-05-17T10:18:57.751Z,1000.66
2023-05-17T10:19:57.755Z,1000.63
2023-05-17T10:20:57.619Z,1000.69
2023-05-17T10:22:02.300Z,1000.63
2023-05-17T10:22:58.817Z,1000.65
2023-05-17T10:23:58.579Z,1000.55
2023-05-17T10:24:57.565Z,1000.58
2023-05-17T10:25:57.557Z,1000.55
2023-05-17T10:26:57.552Z,1000.59
2023-05-17T10:27:57.548Z,1000.54
2023-05-17T10:28:57.551Z,1000.60
2023-05-17T10:29:57.509Z,1000.52
2023-05-17T10:30:57.511Z,1000.55
2023-05-17T10:31:57.513Z,1000.53
2023-05-17T10:33:00.852Z,1000.53
2023-05-17T10:33:57.582Z,1000.53
2023-05-17T10:35:10.519Z,1000.64
2023-05-17T10:35:59.482Z,1000.57
2023-05-17T10:36:57.477Z,1000.61
2023-05-17T10:37:57.470Z,1000.61
2023-05-17T10:38:57.431Z,1000.67
2023-05-17T10:39:57.433Z,1000.59
2023-05-17T10:40:57.408Z,1000.64
2023-05-17T10:42:07.141Z,1000.63
2023-05-17T10:42:59.406Z,1000.62
2023-05-17T10:43:57.382Z,1000.59
2023-05-17T10:44:57.362Z,1000.56
2023-05-17T10:45:57.349Z,1000.62
2023-05-17T10:46:57.385Z,1000.57
2023-05-17T10:47:59.032Z,1000.66
2023-05-17T10:48:57.467Z,1000.72
2023-05-17T10:49:57.322Z,1000.73
2023-05-17T10:51:01.747Z,1000.59
2023-05-17T10:51:58.330Z,1000.60
2023-05-17T10:52:57.294Z,1000.60
2023-05-17T10:53:57.276Z,1000.62
2023-05-17T10:54:57.287Z,1000.61
2023-05-17T10:55:57.254Z,1000.60
2023-05-17T10:56:57.259Z,1000.52
2023-05-17T10:57:57.230Z,1000.53
2023-05-17T10:58:57.243Z,1000.66
2023-05-17T10:59:57.220Z,1000.65
2023-05-17T11:00:57.211Z,1000.69
2023-05-17T11:01:57.196Z,1000.74
2023-05-17T11:02:57.226Z,1000.66
2023-05-17T11:03:57.203Z,1000.71
2023-05-17T11:04:57.264Z,1000.72
2023-05-17T11:05:57.258Z,1000.67
2023-05-17T11:06:57.349Z,1000.77
2023-05-17T11:07:57.159Z,1000.81
2023-05-17T11:08:57.149Z,1000.69
2023-05-17T11:09:58.151Z,1000.69
2023-05-17T11:10:57.123Z,1000.60
2023-05-17T11:11:57.135Z,1000.67
2023-05-17T11:12:57.087Z,1000.58
2023-05-17T11:13:57.133Z,1000.68
2023-05-17T11:14:57.112Z,1000.71
2023-05-17T11:15:57.129Z,1000.68
2023-05-17T11:16:58.246Z,1000.60
2023-05-17T11:17:57.198Z,1000.65
2023-05-17T11:18:57.249Z,1000.70
2023-05-17T11:19:57.070Z,1000.68
2023-05-17T11:20:57.154Z,1000.63
2023-05-17T11:21:56.997Z,1000.59
2023-05-17T11:22:57.006Z,1000.60
2023-05-17T11:23:56.993Z,1000.62
2023-05-17T11:24:56.975Z,1000.71
2023-05-17T11:26:00.417Z,1000.68
2023-05-17T11:26:57.949Z,1000.60
2023-05-17T11:27:56.957Z,1000.69
2023-05-17T11:28:56.957Z,1000.70
2023-05-17T11:29:56.944Z,1000.79
2023-05-17T11:30:56.945Z,1000.71
2023-05-17T11:31:56.920Z,1000.73
2023-05-17T11:32:56.932Z,1000.72
2023-05-17T11:33:56.907Z,1000.69
2023-05-17T11:34:56.887Z,1000.62
2023-05-17T11:35:56.873Z,1000.62
2023-05-17T11:36:56.853Z,1000.60
2023-05-17T11:37:56.838Z,1000.57
2023-05-17T11:39:07.441Z,1000.68
2023-05-17T11:39:58.858Z,1000.66
2023-05-17T11:40:56.811Z,1000.67
2023-05-17T11:41:56.808Z,1000.71
2023-05-17T11:42:56.822Z,1000.75
2023-05-17T11:43:56.806Z,1000.75
2023-05-17T11:44:56.768Z,1000.75
2023-05-17T11:45:56.776Z,1000.79
2023-05-17T11:46:56.800Z,1000.74
2023-05-17T11:47:56.830Z,1000.68
2023-05-17T11:48:56.942Z,1000.63
2023-05-17T11:49:56.804Z,1000.57
2023-05-17T11:50:56.733Z,1000.66
2023-05-17T11:51:56.698Z,1000.63
2023-05-17T11:52:56.685Z,1000.64
2023-05-17T11:53:56.723Z,1000.67
2023-05-17T11:54:56.748Z,1000.62
2023-05-17T11:55:56.663Z,1000.63
2023-05-17T11:56:56.660Z,1000.68
2023-05-17T11:57:56.645Z,1000.71
2023-05-17T11:58:56.650Z,1000.69
2023-05-17T11:59:56.637Z,1000.75
2023-05-17T12:00:56.663Z,1000.72
2023-05-17T12:01:56.641Z,1000.75
2023-05-17T12:02:56.657Z,1000.65
2023-05-17T12:03:56.603Z,1000.75
2023-05-17T12:04:56.722Z,1000.64
2023-05-17T12:05:56.588Z,1000.63
2023-05-17T12:06:56.621Z,1000.68
2023-05-17T12:07:56.571Z,1000.64
2023-05-17T12:08:56.552Z,1000.64
2023-05-17T12:09:56.553Z,1000.62
2023-05-17T12:10:56.516Z,1000.61
2023-05-17T12:11:56.527Z,1000.50
2023-05-17T12:12:56.500Z,1000.63
2023-05-17T12:13:56.498Z,1000.49
2023-05-17T12:14:56.508Z,1000.52
2023-05-17T12:15:56.463Z,1000.64
2023-05-17T12:16:56.557Z,1000.59
2023-05-17T12:17:56.587Z,1000.64
2023-05-17T12:18:56.628Z,1000.59
2023-05-17T12:19:56.536Z,1000.58
2023-05-17T12:20:56.440Z,1000.69
2023-05-17T12:21:56.454Z,1000.65
2023-05-17T12:22:56.491Z,1000.67
2023-05-17T12:23:56.448Z,1000.62
2023-05-17T12:24:56.433Z,1000.58
2023-05-17T12:25:56.415Z,1000.64
2023-05-17T12:26:56.384Z,1000.59
2023-05-17T12:27:56.370Z,1000.61
2023-05-17T12:28:56.398Z,1000.58
2023-05-17T12:29:56.403Z,1000.57
2023-05-17T12:30:56.355Z,1000.56
2023-05-17T12:31:56.321Z,1000.61
2023-05-17T12:32:56.380Z,1000.57
2023-05-17T12:33:56.351Z,1000.58
2023-05-17T12:34:56.285Z,1000.60
2023-05-17T12:35:56.278Z,1000.58
2023-05-17T12:36:56.277Z,1000.60
2023-05-17T12:37:56.272Z,1000.61
2023-05-17T12:38:56.269Z,1000.70
2023-05-17T12:39:56.248Z,1000.60
2023-05-17T12:40:56.263Z,1000.65
2023-05-17T12:41:56.216Z,1000.56
2023-05-17T12:42:56.246Z,1000.60
2023-05-17T12:44:06.299Z,1000.60
2023-05-17T12:44:58.205Z,1000.60